Time;durP1;ratioP1;P1;durP2;ratioP2;P2;SDS_P1;SDS_P2;PMS_P1;PMS_P2;Temp;Humidity;BMP_temperature;BMP_pressure;BME280_temperature;BME280_humidity;BME280_pressure;Samples;Min_cycle;Max_cycle;Signal;HPM_P1;HPM_P2
2021/04/28 00:03:00;;;;;;;20.70;10.75;;;;;;;7.00;40.10;98749.54;263343;1098;114436;-77
2021/04/28 00:14:58;;;;;;;18.68;10.45;;;;;;;6.83;40.59;98741.63;263494;1099;114313;-78
2021/04/28 00:20:08;;;;;;;19.20;10.95;;;;;;;6.79;40.50;98740.93;263397;1104;114530;-79
2021/04/28 00:25:15;;;;;;;19.83;10.90;;;;;;;6.75;40.42;98735.86;263197;1099;114783;-78
2021/04/28 00:30:26;;;;;;;20.38;11.48;;;;;;;6.72;40.04;98736.01;263534;1104;115935;-82
2021/04/28 00:36:18;;;;;;;21.15;11.40;;;;;;;6.68;40.96;98735.31;262957;1102;114448;-73
2021/04/28 00:41:21;;;;;;;19.78;10.85;;;;;;;6.65;40.80;98746.05;263540;1104;115249;-73
2021/04/28 00:46:26;;;;;;;22.15;11.30;;;;;;;6.60;40.75;98737.50;263476;1099;114262;-72
2021/04/28 00:51:30;;;;;;;20.13;11.73;;;;;;;6.56;40.99;98743.89;263473;1104;114878;-73
2021/04/28 00:56:33;;;;;;;20.45;11.13;;;;;;;6.52;40.72;98735.26;263500;1098;114495;-74
2021/04/28 01:01:38;;;;;;;21.65;12.48;;;;;;;6.47;40.92;98739.05;263456;1104;114375;-73
2021/04/28 01:06:46;;;;;;;21.40;11.33;;;;;;;6.40;40.96;98744.64;263483;1099;114672;-74
2021/04/28 01:11:50;;;;;;;21.90;12.25;;;;;;;6.32;41.34;98744.17;263542;1104;114796;-74
2021/04/28 01:17:12;;;;;;;22.18;11.98;;;;;;;6.27;41.67;98746.17;263463;1098;114428;-77
2021/04/28 01:22:24;;;;;;;27.45;12.65;;;;;;;6.20;41.47;98743.92;263349;1104;114769;-78
2021/04/28 01:27:37;;;;;;;23.78;12.38;;;;;;;6.14;41.90;98747.70;262555;1102;114375;-78
2021/04/28 01:32:57;;;;;;;23.08;13.20;;;;;;;6.09;41.95;98741.80;263230;1104;114424;-77
2021/04/28 01:38:11;;;;;;;20.65;11.75;;;;;;;6.06;42.29;98741.95;263490;1099;114555;-76
2021/04/28 01:43:21;;;;;;;20.15;11.48;;;;;;;6.07;41.68;98735.73;263398;1104;114715;-80
2021/04/28 01:48:28;;;;;;;23.00;12.08;;;;;;;6.06;42.06;98734.02;262936;1100;114557;-77
2021/04/28 01:53:37;;;;;;;23.55;11.68;;;;;;;6.02;42.11;98729.83;263080;1104;114650;-67
2021/04/28 01:58:41;;;;;;;20.03;11.90;;;;;;;5.99;41.90;98730.83;263333;1099;114459;-81
2021/04/28 02:04:31;;;;;;;20.45;10.70;;;;;;;5.96;41.74;98723.05;263205;1100;114588;-71
2021/04/28 02:09:52;;;;;;;21.90;11.43;;;;;;;5.91;42.05;98717.96;262882;1100;114590;-78
2021/04/28 02:15:41;;;;;;;18.25;10.70;;;;;;;5.86;42.49;98719.95;261444;1106;115306;-74
2021/04/28 02:20:51;;;;;;;16.48;10.70;;;;;;;5.78;42.28;98719.48;261808;1104;114543;-71
2021/04/28 02:26:53;;;;;;;;;;;;;;;;;;;;;
2021/04/28 02:32:43;;;;;;;17.70;11.13;;;;;;;5.63;42.76;98720.19;263165;1104;115062;-74
2021/04/28 02:38:09;;;;;;;22.23;11.35;;;;;;;5.63;42.66;98714.91;263331;1104;114524;-73
2021/04/28 02:43:37;;;;;;;19.55;10.88;;;;;;;5.61;43.15;98714.14;263217;1088;114863;-88
2021/04/28 02:48:46;;;;;;;18.65;10.55;;;;;;;5.58;43.11;98715.14;263225;1099;114665;-83
2021/04/28 02:54:08;;;;;;;24.43;11.55;;;;;;;5.56;43.08;98718.77;263545;1104;114741;-87
2021/04/28 02:59:13;;;;;;;21.88;11.50;;;;;;;5.55;43.02;98717.06;263498;1099;114408;-88
2021/04/28 03:04:17;;;;;;;16.70;10.13;;;;;;;5.51;43.45;98719.00;263218;1104;114453;-81
2021/04/28 03:09:40;;;;;;;23.48;11.63;;;;;;;5.47;43.44;98722.71;263579;1099;114383;-83
2021/04/28 03:14:44;;;;;;;27.20;11.93;;;;;;;5.46;43.46;98723.61;263227;1104;114551;-87
2021/04/28 03:19:54;;;;;;;21.40;12.17;;;;;;;5.42;43.81;98720.27;263516;1098;114370;-82
2021/04/28 03:24:58;;;;;;;21.08;11.90;;;;;;;5.36;43.49;98728.45;263266;1104;114794;-88
2021/04/28 03:30:13;;;;;;;19.85;11.93;;;;;;;5.32;43.99;98728.68;263441;1099;114389;-89
2021/04/28 03:35:17;;;;;;;24.60;12.63;;;;;;;5.24;43.90;98728.19;263462;1104;114522;-92
2021/04/28 03:40:24;;;;;;;19.93;11.98;;;;;;;5.17;44.08;98730.23;263469;1099;114449;-82
2021/04/28 03:45:28;;;;;;;24.88;13.20;;;;;;;5.12;43.84;98727.79;263257;1104;114556;-83
2021/04/28 03:50:34;;;;;;;23.35;12.28;;;;;;;5.09;44.43;98735.84;263491;1100;114427;-84
2021/04/28 03:55:44;;;;;;;22.95;12.40;;;;;;;5.10;44.41;98739.36;263189;1104;114040;-89
2021/04/28 04:00:48;;;;;;;22.40;12.33;;;;;;;5.08;44.48;98734.13;263500;1100;114509;-80
2021/04/28 04:06:02;;;;;;;24.75;12.83;;;;;;;5.08;44.36;98735.92;262626;1104;114393;-73
2021/04/28 04:11:09;;;;;;;21.50;12.98;;;;;;;5.08;44.70;98744.68;263664;1099;113927;-81
2021/04/28 04:16:12;;;;;;;21.13;12.60;;;;;;;5.12;44.62;98737.48;263541;1104;114489;-73
2021/04/28 04:21:15;;;;;;;21.68;12.00;;;;;;;5.15;44.53;98753.18;263395;1098;114392;-79
2021/04/28 04:26:23;;;;;;;22.95;12.53;;;;;;;5.16;45.27;98749.61;263521;1104;114392;-77
2021/04/28 04:31:37;;;;;;;19.80;12.73;;;;;;;5.19;45.00;98752.96;263488;1098;114463;-81
2021/04/28 04:36:59;;;;;;;23.18;12.70;;;;;;;5.27;45.01;98760.55;263634;1104;113944;-81
2021/04/28 04:42:42;;;;;;;25.05;12.63;;;;;;;5.33;45.27;98760.28;263538;1098;114614;-75
2021/04/28 04:48:07;;;;;;;22.55;12.80;;;;;;;5.38;44.99;98753.00;263494;1104;114806;-75
2021/04/28 04:53:11;;;;;;;24.35;13.20;;;;;;;5.44;44.86;98747.45;263506;1100;114584;-75
2021/04/28 04:58:13;;;;;;;26.70;12.75;;;;;;;5.52;45.03;98749.73;263555;1104;114237;-83
2021/04/28 05:03:17;;;;;;;28.60;12.40;;;;;;;5.62;44.87;98743.09;263402;1100;114542;-75
2021/04/28 05:08:21;;;;;;;24.00;11.10;;;;;;;5.73;45.06;98750.50;263524;1104;114426;-75
2021/04/28 05:13:24;;;;;;;20.70;12.20;;;;;;;5.86;45.31;98746.36;263490;1100;114503;-83
2021/04/28 05:18:27;;;;;;;22.23;12.23;;;;;;;6.08;45.42;98746.23;263131;1104;114742;-83
2021/04/28 05:23:31;;;;;;;22.00;12.93;;;;;;;6.34;44.90;98742.30;263639;1099;114499;-83
2021/04/28 05:28:58;;;;;;;23.02;11.80;;;;;;;6.55;44.96;98748.30;263566;1104;114570;-76
2021/04/28 05:34:01;;;;;;;24.15;11.35;;;;;;;6.68;45.12;98760.91;263016;1102;114480;-77
2021/04/28 05:39:04;;;;;;;20.60;11.30;;;;;;;6.77;45.16;98749.87;263519;1104;114752;-84
2021/04/28 05:44:08;;;;;;;18.78;11.63;;;;;;;6.88;44.28;98747.52;263491;1099;114692;-83
2021/04/28 05:49:14;;;;;;;18.05;11.33;;;;;;;7.00;44.67;98746.05;263542;1104;114606;-84
2021/04/28 05:54:17;;;;;;;19.63;11.40;;;;;;;7.13;44.17;98743.58;263216;1099;114633;-84
2021/04/28 05:59:20;;;;;;;20.70;10.55;;;;;;;7.26;44.79;98748.14;263583;1104;115034;-84
2021/04/28 06:04:23;;;;;;;17.95;10.15;;;;;;;7.34;44.29;98740.67;263456;1099;114706;-81
2021/04/28 06:09:26;;;;;;;17.65;11.23;;;;;;;7.44;44.36;98745.45;263509;1104;114471;-81
2021/04/28 06:14:33;;;;;;;21.05;10.48;;;;;;;7.53;44.08;98744.95;263263;1100;114580;-80
2021/04/28 06:19:37;;;;;;;19.13;10.53;;;;;;;7.64;44.65;98749.66;263534;1104;114632;-73
2021/04/28 06:24:40;;;;;;;17.50;10.78;;;;;;;7.73;44.20;98749.17;263484;1098;114587;-81
2021/04/28 06:29:43;;;;;;;16.05;9.20;;;;;;;7.85;43.96;98750.30;263453;1104;114757;-80
2021/04/28 06:34:46;;;;;;;17.48;9.53;;;;;;;7.95;44.64;98743.55;263526;1099;114451;-80
2021/04/28 06:39:49;;;;;;;13.28;8.00;;;;;;;8.06;44.15;98736.69;262683;1104;114526;-80
2021/04/28 06:44:53;;;;;;;15.03;8.38;;;;;;;8.18;43.58;98728.97;262615;1097;114280;-74
2021/04/28 06:49:56;;;;;;;13.15;8.13;;;;;;;8.28;43.27;98725.70;263107;1104;114428;-74
2021/04/28 06:55:00;;;;;;;14.75;8.75;;;;;;;8.39;43.65;98714.53;263523;1098;114315;-75
2021/04/28 07:00:28;;;;;;;18.83;8.40;;;;;;;8.52;44.11;98702.26;263130;1104;115037;-75
2021/04/28 07:05:35;;;;;;;15.30;8.33;;;;;;;8.67;43.34;98707.59;263423;1100;114516;-75
2021/04/28 07:10:38;;;;;;;15.78;8.73;;;;;;;8.81;43.91;98704.11;263173;1104;115467;-78
2021/04/28 07:15:43;;;;;;;16.60;8.60;;;;;;;8.96;43.70;98709.33;263381;1100;114635;-75
2021/04/28 07:20:47;;;;;;;14.35;8.15;;;;;;;9.12;43.07;98705.75;263142;1104;114305;-75
2021/04/28 07:25:53;;;;;;;13.98;7.60;;;;;;;9.29;43.33;98702.05;263474;1100;114390;-75
2021/04/28 07:31:00;;;;;;;12.60;7.05;;;;;;;9.42;42.90;98700.34;262399;1104;114159;-74
2021/04/28 07:36:03;;;;;;;12.25;7.63;;;;;;;9.59;42.74;98713.41;263472;1098;114575;-74
2021/04/28 07:41:06;;;;;;;10.98;6.70;;;;;;;9.73;42.64;98704.56;263115;1104;114948;-74
2021/04/28 07:46:10;;;;;;;13.48;7.18;;;;;;;9.84;42.50;98703.87;263476;1100;114858;-74
2021/04/28 07:51:14;;;;;;;13.75;7.50;;;;;;;9.93;42.38;98709.45;262752;1104;114562;-74
2021/04/28 07:56:20;;;;;;;14.68;7.80;;;;;;;10.09;42.17;98705.81;262638;1101;114658;-74
2021/04/28 08:01:24;;;;;;;16.13;8.00;;;;;;;10.23;42.28;98703.09;262612;1106;115343;-74
2021/04/28 08:06:28;;;;;;;14.53;7.77;;;;;;;10.39;42.12;98710.91;262528;1100;115134;-74
2021/04/28 08:11:32;;;;;;;14.08;7.78;;;;;;;10.53;41.97;98697.56;262559;1105;115016;-74
2021/04/28 08:16:37;;;;;;;13.35;7.78;;;;;;;10.70;42.04;98704.41;262049;1101;115457;-82
2021/04/28 08:21:40;;;;;;;14.33;7.43;;;;;;;10.86;42.05;98693.55;262539;1104;115098;-82
2021/04/28 08:26:48;;;;;;;11.30;7.55;;;;;;;10.99;41.78;98683.76;262129;1102;115146;-72
2021/04/28 08:31:57;;;;;;;14.18;7.20;;;;;;;11.13;41.87;98685.45;261902;1104;115133;-75
2021/04/28 08:37:02;;;;;;;11.30;6.80;;;;;;;11.26;41.49;98688.97;262527;1102;114967;-74
2021/04/28 08:42:06;;;;;;;13.25;7.05;;;;;;;11.41;41.39;98681.69;262566;1105;115044;-74
2021/04/28 08:47:09;;;;;;;12.45;7.30;;;;;;;11.57;41.16;98687.63;262655;1100;114953;-82
2021/04/28 08:52:15;;;;;;;16.03;8.23;;;;;;;11.71;40.89;98677.80;262747;1104;114988;-74
2021/04/28 08:57:27;;;;;;;12.80;7.35;;;;;;;11.84;40.37;98670.64;262728;1101;114809;-74
2021/04/28 09:02:33;;;;;;;15.48;8.15;;;;;;;12.02;40.64;98677.31;262833;1105;115321;-74
2021/04/28 09:07:40;;;;;;;15.25;8.05;;;;;;;12.17;40.52;98669.13;262811;1102;114997;-82
2021/04/28 09:13:05;;;;;;;13.83;7.73;;;;;;;12.36;40.66;98664.09;262674;1105;114854;-82
2021/04/28 09:18:10;;;;;;;14.95;6.93;;;;;;;12.58;40.41;98659.81;263178;1098;115109;-74
2021/04/28 09:23:36;;;;;;;15.13;7.43;;;;;;;12.75;39.91;98654.03;262886;1104;114965;-82
2021/04/28 09:28:58;;;;;;;12.33;6.50;;;;;;;12.93;39.41;98641.06;262995;1100;114966;-74
2021/04/28 09:34:02;;;;;;;15.28;6.03;;;;;;;13.12;39.84;98635.98;263238;1104;114954;-74
2021/04/28 09:39:05;;;;;;;10.28;5.35;;;;;;;13.31;39.81;98632.72;262961;1102;115097;-82
2021/04/28 09:44:20;;;;;;;8.83;5.75;;;;;;;13.52;38.85;98613.25;263324;1104;114855;-74
2021/04/28 09:49:26;;;;;;;10.45;5.33;;;;;;;13.68;39.44;98600.34;263080;1100;114712;-74
2021/04/28 09:54:30;;;;;;;9.88;5.30;;;;;;;13.85;38.86;98607.83;262945;1104;114752;-74
2021/04/28 09:59:45;;;;;;;8.55;5.60;;;;;;;13.98;38.16;98602.31;262875;1102;115144;-82
2021/04/28 10:04:48;;;;;;;6.98;4.68;;;;;;;14.16;38.47;98587.42;263141;1104;114778;-75
2021/04/28 10:09:52;;;;;;;11.30;4.55;;;;;;;14.42;38.48;98577.16;263132;1100;115009;-74
2021/04/28 10:14:55;;;;;;;8.73;5.45;;;;;;;14.65;38.68;98574.39;263027;1104;115016;-84
2021/04/28 10:19:59;;;;;;;10.03;5.00;;;;;;;14.88;37.96;98562.52;262889;1101;114747;-83
2021/04/28 10:25:06;;;;;;;7.83;4.83;;;;;;;15.13;37.98;98549.64;262953;1100;114934;-75
2021/04/28 10:30:10;;;;;;;11.30;4.95;;;;;;;15.34;37.53;98557.59;262981;1102;114770;-74
2021/04/28 10:35:19;;;;;;;6.80;4.28;;;;;;;15.58;37.05;98541.98;262965;1104;114819;-82
2021/04/28 10:40:24;;;;;;;9.63;4.33;;;;;;;15.81;37.47;98539.92;262989;1100;114704;-74
2021/04/28 10:45:38;;;;;;;7.68;4.40;;;;;;;16.03;36.28;98532.56;262847;1104;114875;-74
2021/04/28 10:51:01;;;;;;;8.73;4.40;;;;;;;16.27;36.42;98522.25;263194;1101;114602;-82
2021/04/28 10:56:13;;;;;;;8.05;4.73;;;;;;;16.49;36.11;98514.84;262662;1105;114878;-75
2021/04/28 11:01:19;;;;;;;6.40;4.20;;;;;;;16.69;35.43;98518.31;262649;1105;114813;-75
2021/04/28 11:06:28;;;;;;;9.33;4.13;;;;;;;16.91;35.32;98520.66;262871;1104;114977;-75
2021/04/28 11:11:44;;;;;;;7.53;4.35;;;;;;;17.15;35.12;98511.20;262910;1100;114653;-83
2021/04/28 11:16:57;;;;;;;5.50;3.93;;;;;;;17.35;34.87;98511.94;262982;1100;115076;-75
2021/04/28 11:22:13;;;;;;;8.05;4.50;;;;;;;17.62;34.58;98508.36;262805;1103;114770;-75
2021/04/28 11:27:53;;;;;;;12.28;4.28;;;;;;;17.86;34.42;98495.16;262910;1100;115129;-83
2021/04/28 11:33:25;;;;;;;5.70;4.05;;;;;;;18.13;34.23;98487.98;262514;1105;115391;-83
2021/04/28 11:38:30;;;;;;;7.00;4.10;;;;;;;18.28;33.88;98485.59;263062;1100;115456;-74
2021/04/28 11:43:41;;;;;;;9.35;4.60;;;;;;;18.35;32.83;98487.48;262890;1104;114654;-82
2021/04/28 11:48:48;;;;;;;7.38;4.08;;;;;;;18.48;32.82;98473.59;263143;1100;114884;-74
2021/04/28 11:53:59;;;;;;;10.33;4.50;;;;;;;18.59;32.72;98469.78;262773;1105;114829;-75
2021/04/28 11:59:05;;;;;;;9.00;4.33;;;;;;;18.68;32.68;98463.41;262817;1100;114999;-81
2021/04/28 12:04:11;;;;;;;11.67;4.03;;;;;;;18.89;32.85;98450.41;263030;1104;114880;-83
2021/04/28 12:09:17;;;;;;;;;;;;;;;19.13;32.35;98451.51;262876;1100;114939;-75
2021/04/28 12:14:25;;;;;;;8.40;4.73;;;;;;;19.33;31.90;98449.38;263279;1105;101104;-74
2021/04/28 12:19:28;;;;;;;7.08;4.33;;;;;;;19.53;31.88;98439.97;263054;1100;114851;-73
2021/04/28 12:24:40;;;;;;;9.40;4.35;;;;;;;19.65;31.38;98443.20;262976;1104;114687;-74
2021/04/28 12:29:49;;;;;;;7.38;4.00;;;;;;;19.70;31.14;98423.78;262655;1100;114922;-74
2021/04/28 12:35:29;;;;;;;8.03;4.63;;;;;;;19.80;31.54;98424.46;262905;1104;114788;-82
2021/04/28 12:40:52;;;;;;;7.50;4.53;;;;;;;20.12;32.45;98409.27;262521;1101;114954;-82
2021/04/28 12:46:08;;;;;;;10.38;4.30;;;;;;;20.50;32.19;98407.64;262679;1105;115018;-82
2021/04/28 12:51:15;;;;;;;9.40;4.48;;;;;;;20.76;31.86;98399.31;262984;1099;114954;-82
2021/04/28 12:56:18;;;;;;;8.30;4.43;;;;;;;20.98;31.75;98394.96;262728;1105;115340;-74
2021/04/28 13:01:25;;;;;;;6.40;4.03;;;;;;;21.15;31.23;98393.01;262711;1099;115282;-83
2021/04/28 13:06:28;;;;;;;7.23;3.98;;;;;;;21.06;30.40;98375.13;262613;1105;114765;-74
2021/04/28 13:11:44;;;;;;;6.60;3.98;;;;;;;20.97;29.80;98375.19;262555;1099;114856;-74
2021/04/28 13:16:58;;;;;;;10.03;4.30;;;;;;;21.02;29.92;98374.64;262573;1105;114906;-74
2021/04/28 13:22:16;;;;;;;6.70;4.10;;;;;;;21.20;29.91;98372.52;262693;1100;115282;-74
2021/04/28 13:27:30;;;;;;;6.10;4.28;;;;;;;21.31;29.23;98354.17;262593;1105;115113;-74
2021/04/28 13:32:44;;;;;;;10.45;4.68;;;;;;;21.34;28.93;98359.23;262571;1102;114778;-74
2021/04/28 13:38:04;;;;;;;7.68;4.43;;;;;;;21.31;28.88;98354.17;262780;1104;114961;-74
2021/04/28 13:43:11;;;;;;;12.25;7.98;;;;;;;21.39;29.49;98341.44;262526;1100;114925;-73
2021/04/28 13:48:15;;;;;;;18.57;12.00;;;;;;;21.60;29.38;98335.37;262590;1104;114956;-83
2021/04/28 13:53:18;;;;;;;42.18;32.20;;;;;;;21.82;29.61;98339.05;262651;1100;115392;-83
2021/04/28 13:58:22;;;;;;;22.08;17.93;;;;;;;22.01;29.31;98336.81;262634;1105;115324;-83
2021/04/28 14:03:28;;;;;;;24.20;15.33;;;;;;;22.12;29.02;98333.67;262585;1105;115367;-83
2021/04/28 14:08:32;;;;;;;43.65;28.23;;;;;;;22.17;28.92;98321.25;262353;1105;115254;-78
2021/04/28 14:13:40;;;;;;;34.18;21.33;;;;;;;22.24;29.11;98320.51;262493;1100;115459;-75
2021/04/28 14:18:46;;;;;;;15.08;8.73;;;;;;;22.29;29.00;98313.51;261936;1105;116205;-79
2021/04/28 14:23:49;;;;;;;19.08;13.75;;;;;;;22.16;28.09;98310.61;262501;1102;115057;-81
2021/04/28 14:28:53;;;;;;;13.97;8.50;;;;;;;21.99;27.52;98311.80;261521;1104;115454;-73
2021/04/28 14:33:57;;;;;;;24.78;16.03;;;;;;;21.84;27.46;98303.63;262405;1101;115033;-74
2021/04/28 14:39:01;;;;;;;;;;;;;;;21.59;27.37;98298.45;262421;1104;116015;-76
2021/04/28 14:44:06;;;;;;;14.45;7.53;;;;;;;21.22;27.03;98300.09;262956;1100;101021;-76
2021/04/28 14:49:10;;;;;;;9.78;5.60;;;;;;;20.75;27.13;98298.41;263001;1104;115480;-74
2021/04/28 14:54:17;;;;;;;22.95;15.60;;;;;;;20.27;27.11;98294.03;262726;1104;114927;-74
2021/04/28 14:59:21;;;;;;;7.23;5.25;;;;;;;19.86;27.11;98291.47;262730;1104;115460;-72
2021/04/28 15:04:24;;;;;;;9.85;4.95;;;;;;;19.50;27.26;98286.45;262671;1100;115168;-73
2021/04/28 15:09:27;;;;;;;6.70;4.58;;;;;;;19.13;27.38;98289.66;262896;1104;114866;-72
2021/04/28 15:14:32;;;;;;;7.40;4.37;;;;;;;18.80;27.71;98275.30;262544;1104;114981;-73
2021/04/28 15:19:39;;;;;;;8.53;5.20;;;;;;;18.55;27.68;98279.77;262902;1104;114728;-71
2021/04/28 15:24:47;;;;;;;9.03;5.20;;;;;;;18.35;27.59;98271.13;262867;1100;114784;-78
2021/04/28 15:29:53;;;;;;;9.00;4.50;;;;;;;18.23;27.79;98259.78;262893;1104;114894;-76
2021/04/28 15:34:57;;;;;;;12.15;4.95;;;;;;;18.13;27.56;98262.60;263138;1100;114774;-82
2021/04/28 15:40:01;;;;;;;8.08;5.00;;;;;;;18.10;27.95;98256.70;263373;1104;115366;-82
2021/04/28 15:45:05;;;;;;;12.15;4.98;;;;;;;18.21;27.78;98251.05;262908;1104;114714;-77
2021/04/28 15:50:10;;;;;;;14.30;5.08;;;;;;;18.47;27.64;98250.09;262849;1104;115086;-87
2021/04/28 15:55:16;;;;;;;7.25;4.78;;;;;;;18.78;27.98;98248.48;262991;1099;114949;-78
2021/04/28 16:00:20;;;;;;;52.60;34.03;;;;;;;19.14;28.98;98237.39;262874;1104;115207;-82
2021/04/28 16:05:28;;;;;;;25.88;18.50;;;;;;;19.62;29.60;98241.88;262621;1100;115397;-82
2021/04/28 16:10:31;;;;;;;19.33;14.50;;;;;;;20.01;29.27;98227.63;262804;1104;115054;-79
2021/04/28 16:15:35;;;;;;;40.18;27.58;;;;;;;20.31;29.02;98222.40;262944;1100;115530;-83
2021/04/28 16:20:39;;;;;;;39.63;28.60;;;;;;;20.29;28.82;98222.59;262791;1105;115123;-76
2021/04/28 16:25:43;;;;;;;22.20;12.80;;;;;;;20.18;29.13;98214.05;262616;1099;115248;-77
2021/04/28 16:30:47;;;;;;;34.95;26.68;;;;;;;20.01;29.68;98213.28;262686;1104;115422;-79
2021/04/28 16:35:50;;;;;;;40.47;31.67;;;;;;;19.80;29.42;98217.41;262932;1104;115249;-79
2021/04/28 16:40:56;;;;;;;43.55;30.45;;;;;;;19.66;30.78;98217.27;263045;1104;115004;-80
2021/04/28 16:46:01;;;;;;;19.25;11.38;;;;;;;19.61;30.75;98224.00;262786;1100;115529;-75
2021/04/28 16:51:09;;;;;;;22.05;12.45;;;;;;;19.48;30.88;98221.00;263046;1104;115191;-78
2021/04/28 16:56:19;;;;;;;25.20;14.83;;;;;;;19.39;31.50;98222.02;262719;1100;115051;-75
2021/04/28 17:01:27;;;;;;;59.75;47.78;;;;;;;19.32;31.46;98223.71;262865;1104;115169;-76
2021/04/28 17:06:34;;;;;;;61.45;47.65;;;;;;;19.26;31.25;98214.47;262694;1100;115750;-76
2021/04/28 17:11:43;;;;;;;142.80;103.53;;;;;;;19.07;30.99;98210.25;263033;1104;114973;-81
2021/04/28 17:16:49;;;;;;;19.80;12.13;;;;;;;18.93;30.37;98212.80;262599;1100;115720;-84
2021/04/28 17:22:10;;;;;;;11.45;6.05;;;;;;;18.39;29.42;98215.90;262856;1104;115137;-83
2021/04/28 17:27:15;;;;;;;12.53;5.45;;;;;;;17.94;29.47;98220.64;262912;1100;115080;-85
2021/04/28 17:32:26;;;;;;;9.53;5.18;;;;;;;17.53;29.17;98221.39;262838;1104;114857;-86
2021/04/28 17:37:31;;;;;;;10.85;5.10;;;;;;;17.16;29.58;98209.08;262700;1100;114912;-84
2021/04/28 17:42:37;;;;;;;12.18;6.05;;;;;;;16.83;29.92;98216.03;262646;1104;115652;-86
2021/04/28 17:47:45;;;;;;;10.38;6.05;;;;;;;16.55;30.30;98219.61;262304;1100;115153;-81
2021/04/28 17:52:50;;;;;;;12.60;6.48;;;;;;;16.30;30.31;98220.34;262758;1100;115018;-83
2021/04/28 17:57:53;;;;;;;13.88;6.55;;;;;;;16.09;30.43;98228.67;262509;1104;116081;-83
2021/04/28 18:02:58;;;;;;;12.48;7.15;;;;;;;15.89;31.15;98227.09;262975;1104;115075;-83
2021/04/28 18:08:14;;;;;;;15.70;7.50;;;;;;;15.69;30.87;98234.37;262513;1100;114990;-86
2021/04/28 18:13:19;;;;;;;14.88;7.88;;;;;;;15.53;31.46;98237.66;262574;1104;114999;-79
2021/04/28 18:18:26;;;;;;;17.83;7.90;;;;;;;15.33;31.51;98240.39;262646;1099;115152;-79
2021/04/28 18:23:45;;;;;;;16.30;8.95;;;;;;;15.19;31.81;98242.69;262962;1104;115308;-81
2021/04/28 18:28:55;;;;;;;20.85;10.58;;;;;;;15.04;31.87;98244.95;262918;1100;114815;-83
2021/04/28 18:34:04;;;;;;;18.88;9.58;;;;;;;14.92;31.96;98238.91;262786;1105;115191;-85
2021/04/28 18:39:12;;;;;;;;;;;;;;;14.81;32.41;98245.27;263011;1100;115713;-89
2021/04/28 18:44:16;;;;;;;16.48;9.13;;;;;;;14.69;31.91;98240.19;263153;1104;102495;-90
2021/04/28 18:49:20;;;;;;;16.65;9.03;;;;;;;14.58;32.32;98235.81;263061;1104;114780;-89
2021/04/28 18:54:23;;;;;;;17.28;9.30;;;;;;;14.47;32.48;98230.54;262786;1104;115149;-90
2021/04/28 18:59:26;;;;;;;18.65;9.60;;;;;;;14.37;32.88;98228.72;262641;1100;114858;-89
2021/04/28 19:04:29;;;;;;;19.25;10.90;;;;;;;14.25;32.78;98226.30;263114;1104;115615;-87
2021/04/28 19:09:33;;;;;;;26.00;11.45;;;;;;;14.14;32.63;98216.56;262996;1100;115410;-81
2021/04/28 19:14:37;;;;;;;20.15;11.65;;;;;;;14.04;32.44;98221.05;262817;1104;115329;-88
2021/04/28 19:19:44;;;;;;;19.15;11.15;;;;;;;13.95;33.53;98218.19;262809;1100;115222;-83
2021/04/28 19:24:47;;;;;;;21.03;11.50;;;;;;;13.87;33.38;98218.04;262887;1104;116300;-83
2021/04/28 19:29:51;;;;;;;23.28;10.55;;;;;;;13.79;33.60;98217.89;262560;1100;115458;-82
2021/04/28 19:34:55;;;;;;;20.30;10.37;;;;;;;13.72;33.06;98216.70;262784;1104;115947;-83
2021/04/28 19:40:00;;;;;;;22.10;10.88;;;;;;;13.63;33.70;98220.21;262700;1105;115795;-83
2021/04/28 19:45:06;;;;;;;23.13;10.85;;;;;;;13.54;33.69;98224.52;262665;1106;115191;-83
2021/04/28 19:50:11;;;;;;;22.08;10.55;;;;;;;13.43;33.89;98222.79;262645;1100;115035;-79
2021/04/28 19:55:19;;;;;;;20.63;10.78;;;;;;;13.30;33.98;98216.81;262869;1104;115153;-79
2021/04/28 20:00:23;;;;;;;21.60;11.85;;;;;;;13.22;34.24;98220.13;263072;1100;115391;-78
2021/04/28 20:05:28;;;;;;;26.08;11.80;;;;;;;13.17;34.20;98205.45;263110;1104;115714;-78
2021/04/28 20:10:33;;;;;;;25.68;12.33;;;;;;;13.11;34.43;98212.19;262856;1100;115007;-78
2021/04/28 20:15:38;;;;;;;22.20;11.80;;;;;;;13.05;34.72;98207.36;262718;1104;115458;-83
2021/04/28 20:20:45;;;;;;;22.15;11.85;;;;;;;12.99;34.74;98208.72;262918;1100;115538;-83
2021/04/28 20:25:52;;;;;;;20.85;11.93;;;;;;;12.93;35.05;98216.41;263007;1105;115301;-83
2021/04/28 20:31:00;;;;;;;21.93;11.50;;;;;;;12.89;34.88;98213.16;262625;1105;115128;-78
2021/04/28 20:36:03;;;;;;;21.55;11.78;;;;;;;12.78;35.78;98213.23;262555;1104;115160;-78
2021/04/28 20:41:07;;;;;;;25.23;12.45;;;;;;;12.69;34.90;98216.66;262960;1099;115211;-78
2021/04/28 20:46:10;;;;;;;27.15;12.53;;;;;;;12.62;35.15;98216.33;262694;1104;114989;-78
2021/04/28 20:51:15;;;;;;;23.68;12.65;;;;;;;12.55;35.14;98223.16;262731;1099;115142;-78
2021/04/28 20:56:18;;;;;;;23.43;13.05;;;;;;;12.49;36.14;98219.16;263081;1104;115342;-79
2021/04/28 21:01:21;;;;;;;22.65;12.13;;;;;;;12.40;35.72;98225.28;263087;1099;115020;-78
2021/04/28 21:06:38;;;;;;;21.03;12.10;;;;;;;12.33;35.66;98231.23;262647;1105;114983;-78
2021/04/28 21:11:41;;;;;;;22.38;12.30;;;;;;;12.26;36.14;98228.21;262950;1104;114981;-79
2021/04/28 21:16:45;;;;;;;23.00;11.87;;;;;;;12.20;36.40;98232.25;262844;1100;115094;-78
2021/04/28 21:21:49;;;;;;;25.00;12.33;;;;;;;12.13;36.98;98224.88;263154;1104;115096;-78
2021/04/28 21:26:52;;;;;;;27.50;12.80;;;;;;;12.05;37.36;98230.81;262811;1105;114982;-77
2021/04/28 21:31:55;;;;;;;23.60;13.13;;;;;;;11.95;37.60;98227.20;263047;1100;115347;-77
2021/04/28 21:37:04;;;;;;;27.40;14.30;;;;;;;11.83;37.87;98226.34;263340;1104;115199;-81
2021/04/28 21:42:07;;;;;;;27.40;13.45;;;;;;;11.73;38.39;98233.38;263339;1100;115003;-82
2021/04/28 21:47:10;;;;;;;33.63;14.58;;;;;;;11.65;38.86;98244.66;263156;1104;115315;-82
2021/04/28 21:52:14;;;;;;;32.65;14.65;;;;;;;11.56;38.31;98240.05;262996;1100;116129;-82
2021/04/28 21:57:17;;;;;;;39.20;15.55;;;;;;;11.43;38.79;98248.16;262906;1104;115211;-82
2021/04/28 22:02:20;;;;;;;31.45;14.83;;;;;;;11.30;39.34;98242.08;262962;1099;115965;-82
2021/04/28 22:07:23;;;;;;;34.73;15.48;;;;;;;11.18;39.40;98253.70;263129;1104;115256;-82
2021/04/28 22:12:26;;;;;;;34.05;16.08;;;;;;;11.07;40.02;98252.72;262779;1102;115073;-82
2021/04/28 22:17:29;;;;;;;34.93;16.63;;;;;;;10.95;40.00;98244.81;263008;1104;115078;-77
2021/04/28 22:22:32;;;;;;;33.13;16.68;;;;;;;10.85;40.09;98248.16;262917;1099;115189;-78
2021/04/28 22:27:36;;;;;;;33.65;17.85;;;;;;;10.76;39.92;98250.67;262758;1105;115432;-78
2021/04/28 22:32:39;;;;;;;35.58;17.45;;;;;;;10.68;40.21;98248.59;262603;1100;115838;-77
2021/04/28 22:37:43;;;;;;;34.50;18.30;;;;;;;10.55;40.79;98247.81;263482;1104;115349;-78
2021/04/28 22:42:46;;;;;;;31.53;17.75;;;;;;;10.40;40.53;98252.47;263365;1099;115187;-75
2021/04/28 22:47:50;;;;;;;34.95;18.03;;;;;;;10.29;40.48;98249.73;262365;1099;115331;-77
2021/04/28 22:52:53;;;;;;;38.00;17.53;;;;;;;10.20;41.05;98248.58;262867;1100;115361;-78
2021/04/28 22:57:57;;;;;;;32.15;17.68;;;;;;;10.15;41.04;98248.90;262953;1105;115041;-82
2021/04/28 23:03:00;;;;;;;34.48;17.55;;;;;;;10.15;41.41;98242.73;262730;1105;115565;-82
2021/04/28 23:08:03;;;;;;;32.03;17.08;;;;;;;10.05;41.55;98237.23;263180;1101;115122;-82
2021/04/28 23:13:06;;;;;;;29.63;16.78;;;;;;;9.97;41.53;98234.30;263314;1104;116349;-82
2021/04/28 23:18:09;;;;;;;32.23;16.83;;;;;;;9.84;42.07;98228.17;263399;1100;114791;-82
2021/04/28 23:23:12;;;;;;;33.40;17.43;;;;;;;9.75;41.83;98227.04;263837;1104;114931;-82
2021/04/28 23:28:16;;;;;;;31.10;17.70;;;;;;;9.68;42.51;98223.09;262917;1100;115311;-81
2021/04/28 23:33:19;;;;;;;29.25;17.20;;;;;;;9.59;42.52;98227.27;262941;1104;115330;-82